Terminal Aerodrome Forecast
Issued by NWS Wichita, KS

Home | Current Version | Previous Version | Graphics & Text | Print | Product List | Glossary On
Versions: 1 2 3 4 5 6 7 8 9 10 11 12 13
841
FTUS43 KICT 201130
TAFICT
TAF
KICT 201130Z 2012/2112 VRB04KT P6SM BKN300
     FM201800 04009KT P6SM BKN300=

USA.gov is the U.S. government's official web portal to all federal, state and local government web resources and services.